Chena Hot Springs, Alaska
Current Conditions -  °F | °C
As of 10:58 PM on Thursday 23 Oct 2014 (Local Time) from PAEI Reporting Station
Unknown Precip Unknown Precip  
Wind Chill: 22°   Ceiling: Unl
Heat Index: 22°   Visibility: 10mi
Dew Point: 18°   Wind: 1mph
Humidity: 85%   Direction: NA
Pressure: 29.81"   Gusts: NA
Location:  65.05°N, 146.06°W
Report Text: PAEI 240658Z AUTO VRB01KT 10SM UP SCT033 M05/M08 A2981 RMK AO2 UPB0624 SLP107 P0000 T10551076 $
Loading
Personal Weather Stations






























Interactive Weather Map
Tropical Storm Tracking
New forecast layout! Learn more

10-Day Weather Forecast

Advertisements
Track Severe Weather on mobile